createdAt,value
2022-12-18T00:01:32.134Z,41.67
2022-12-18T00:04:57.006Z,36.87
2022-12-18T00:08:20.885Z,33.53
2022-12-18T00:11:43.961Z,26.37
2022-12-18T00:15:07.711Z,30.80
2022-12-18T00:18:31.950Z,30.50
2022-12-18T00:21:55.767Z,22.93
2022-12-18T00:25:18.673Z,20.73
2022-12-18T00:28:41.563Z,27.90
2022-12-18T00:32:06.800Z,19.97
2022-12-18T00:35:31.014Z,19.77
2022-12-18T00:38:55.632Z,31.87
2022-12-18T00:42:35.862Z,26.70
2022-12-18T00:45:58.882Z,25.27
2022-12-18T00:49:25.398Z,22.33
2022-12-18T00:52:49.659Z,24.00
2022-12-18T00:56:14.179Z,23.47
2022-12-18T00:59:37.091Z,20.73
2022-12-18T01:03:00.342Z,21.33
2022-12-18T01:06:23.346Z,23.00
2022-12-18T01:09:47.581Z,19.20
2022-12-18T01:13:10.669Z,16.30
2022-12-18T01:16:33.719Z,15.97
2022-12-18T01:19:59.587Z,20.77
2022-12-18T01:23:22.821Z,16.80
2022-12-18T01:26:47.139Z,17.53
2022-12-18T01:30:12.031Z,12.83
2022-12-18T01:33:35.269Z,11.43
2022-12-18T01:36:58.353Z,14.23
2022-12-18T01:40:21.342Z,13.37
2022-12-18T01:43:51.897Z,17.77
2022-12-18T01:47:17.764Z,18.00
2022-12-18T01:50:42.764Z,19.07
2022-12-18T01:54:06.752Z,21.40
2022-12-18T01:57:30.802Z,21.90
2022-12-18T02:00:56.565Z,16.77
2022-12-18T02:04:22.661Z,18.33
2022-12-18T02:07:54.580Z,20.17
2022-12-18T02:11:26.092Z,18.00
2022-12-18T02:14:59.953Z,18.40
2022-12-18T02:18:29.378Z,17.20
2022-12-18T02:21:59.338Z,14.80
2022-12-18T02:25:37.624Z,15.93
2022-12-18T02:29:07.793Z,18.07
2022-12-18T02:32:37.468Z,17.20
2022-12-18T02:36:01.940Z,17.17
2022-12-18T02:39:27.912Z,19.43
2022-12-18T02:42:55.240Z,18.20
2022-12-18T02:46:34.251Z,18.33
2022-12-18T02:50:11.940Z,26.63
2022-12-18T02:53:43.060Z,20.50
2022-12-18T02:57:16.886Z,25.10
2022-12-18T03:00:46.034Z,22.47
2022-12-18T03:04:14.855Z,19.23
2022-12-18T03:07:43.248Z,17.43
2022-12-18T03:11:10.774Z,18.63
2022-12-18T03:14:36.044Z,15.10
2022-12-18T03:18:03.898Z,14.97
2022-12-18T03:21:33.871Z,13.40
2022-12-18T03:24:58.872Z,15.47
2022-12-18T03:28:24.636Z,14.93
2022-12-18T03:32:00.413Z,14.63
2022-12-18T03:35:30.829Z,11.97
2022-12-18T03:39:03.438Z,16.97
2022-12-18T03:42:34.544Z,12.70
2022-12-18T03:46:09.641Z,12.87
2022-12-18T03:49:37.741Z,14.07
2022-12-18T03:53:12.301Z,15.60
2022-12-18T03:56:42.137Z,14.73
2022-12-18T04:00:10.042Z,15.47
2022-12-18T04:03:40.135Z,21.17
2022-12-18T04:07:05.286Z,15.53
2022-12-18T04:10:31.213Z,14.87
2022-12-18T04:13:59.874Z,13.87
2022-12-18T04:17:23.442Z,13.70
2022-12-18T04:20:46.674Z,19.87
2022-12-18T04:24:09.951Z,11.97
2022-12-18T04:27:37.696Z,13.37
2022-12-18T04:31:03.646Z,14.13
2022-12-18T04:34:26.794Z,12.10
2022-12-18T04:37:51.142Z,11.47
2022-12-18T04:41:17.531Z,14.43
2022-12-18T04:44:43.585Z,10.37
2022-12-18T04:48:08.421Z,11.10
2022-12-18T04:51:31.571Z,14.10
2022-12-18T04:54:54.622Z,12.03
2022-12-18T04:58:17.875Z,10.63
2022-12-18T05:01:41.113Z,12.80
2022-12-18T05:05:06.809Z,11.97
2022-12-18T05:08:29.891Z,10.33
2022-12-18T05:11:52.981Z,10.57
2022-12-18T05:15:16.124Z,10.83
2022-12-18T05:18:39.957Z,9.97
2022-12-18T05:22:04.516Z,12.50
2022-12-18T05:25:27.809Z,12.00
2022-12-18T05:28:50.980Z,12.00
2022-12-18T05:32:14.049Z,12.30
2022-12-18T05:35:37.136Z,10.20
2022-12-18T05:39:02.187Z,9.70
2022-12-18T05:42:25.393Z,8.90
2022-12-18T05:45:48.449Z,10.87
2022-12-18T05:49:11.531Z,11.27
2022-12-18T05:52:34.597Z,11.33
2022-12-18T05:56:02.481Z,14.70
2022-12-18T05:59:25.900Z,15.13
2022-12-18T06:02:49.352Z,12.53
2022-12-18T06:06:16.865Z,17.03
2022-12-18T06:09:39.931Z,18.03
2022-12-18T06:13:04.665Z,16.47
2022-12-18T06:16:28.765Z,14.80
2022-12-18T06:19:51.878Z,12.03
2022-12-18T06:23:14.953Z,10.57
2022-12-18T06:26:39.928Z,13.10
2022-12-18T06:30:05.430Z,18.53
2022-12-18T06:33:29.984Z,20.70
2022-12-18T06:36:53.153Z,17.67
2022-12-18T06:40:16.390Z,19.33
2022-12-18T06:43:40.347Z,16.60
2022-12-18T06:47:05.167Z,28.87
2022-12-18T06:50:28.311Z,15.20
2022-12-18T06:53:51.764Z,36.87
2022-12-18T06:57:14.963Z,15.53
2022-12-18T07:00:38.046Z,13.10
2022-12-18T07:04:02.381Z,13.40
2022-12-18T07:07:25.365Z,12.83
2022-12-18T07:10:55.798Z,16.40
2022-12-18T07:14:19.244Z,14.07
2022-12-18T07:17:42.118Z,16.83
2022-12-18T07:21:07.457Z,12.90
2022-12-18T07:24:31.044Z,15.60
2022-12-18T07:27:54.197Z,14.87
2022-12-18T07:31:19.185Z,15.90
2022-12-18T07:34:42.133Z,16.40
2022-12-18T07:38:06.408Z,14.00
2022-12-18T07:41:29.409Z,12.73
2022-12-18T07:44:55.494Z,17.73
2022-12-18T07:48:18.467Z,17.87
2022-12-18T07:51:41.525Z,14.47
2022-12-18T07:55:06.752Z,11.00
2022-12-18T07:58:31.141Z,14.70
2022-12-18T08:01:54.133Z,15.23
2022-12-18T08:05:20.004Z,18.93
2022-12-18T08:08:43.319Z,12.40
2022-12-18T08:12:10.625Z,12.73
2022-12-18T08:15:33.549Z,15.20
2022-12-18T08:18:56.479Z,13.13
2022-12-18T08:22:19.622Z,13.87
2022-12-18T08:25:42.533Z,17.23
2022-12-18T08:29:06.799Z,14.30
2022-12-18T08:32:30.215Z,12.90
2022-12-18T08:35:53.138Z,12.70
2022-12-18T08:39:16.194Z,10.10
2022-12-18T08:42:56.929Z,13.07
2022-12-18T08:46:22.468Z,12.50
2022-12-18T08:49:45.451Z,14.03
2022-12-18T08:53:08.644Z,12.27
2022-12-18T08:56:32.070Z,16.07
2022-12-18T08:59:55.079Z,14.53
2022-12-18T09:03:20.929Z,13.77
2022-12-18T09:06:44.436Z,13.90
2022-12-18T09:10:08.399Z,14.90
2022-12-18T09:13:31.307Z,13.73
2022-12-18T09:16:54.507Z,17.80
2022-12-18T09:20:19.039Z,22.93
2022-12-18T09:23:42.121Z,18.20
2022-12-18T09:27:05.196Z,16.80
2022-12-18T09:30:28.505Z,15.00
2022-12-18T09:33:51.518Z,16.97
2022-12-18T09:37:15.757Z,16.87
2022-12-18T09:40:43.932Z,16.03
2022-12-18T09:44:15.774Z,15.67
2022-12-18T09:47:41.164Z,12.03
2022-12-18T09:51:11.367Z,14.17
2022-12-18T09:54:47.806Z,12.80
2022-12-18T09:58:18.893Z,13.93
2022-12-18T10:01:44.607Z,13.80
2022-12-18T10:05:15.261Z,13.77
2022-12-18T10:08:45.582Z,11.27
2022-12-18T10:12:20.826Z,16.83
2022-12-18T10:15:56.480Z,16.27
2022-12-18T10:19:30.985Z,15.27
2022-12-18T10:23:01.598Z,12.50
2022-12-18T10:26:24.496Z,14.70
2022-12-18T10:29:49.610Z,13.93
2022-12-18T10:33:18.277Z,15.90
2022-12-18T10:36:41.190Z,13.10
2022-12-18T10:40:16.673Z,15.93
2022-12-18T10:43:43.156Z,14.17
2022-12-18T10:47:14.129Z,14.20
2022-12-18T10:54:25.671Z,14.83
2022-12-18T10:57:48.798Z,12.73
2022-12-18T11:01:14.455Z,14.67
2022-12-18T11:04:55.764Z,12.90
2022-12-18T11:08:23.661Z,17.27
2022-12-18T11:11:53.141Z,13.30
2022-12-18T11:15:20.731Z,14.57
2022-12-18T11:18:43.942Z,13.70
2022-12-18T11:22:22.347Z,15.27
2022-12-18T11:25:54.537Z,15.17
2022-12-18T11:29:20.304Z,16.07
2022-12-18T11:32:47.052Z,15.87
2022-12-18T11:36:11.414Z,13.53
2022-12-18T11:39:40.226Z,13.70
2022-12-18T11:43:10.498Z,13.07
2022-12-18T11:46:36.862Z,16.43
2022-12-18T11:50:03.777Z,16.03
2022-12-18T11:53:28.644Z,16.47
2022-12-18T11:56:58.172Z,15.53
2022-12-18T12:00:22.696Z,24.43
2022-12-18T12:04:15.909Z,14.90
2022-12-18T12:07:49.718Z,16.30
2022-12-18T12:11:21.023Z,19.47
2022-12-18T12:14:53.043Z,16.93
2022-12-18T12:18:24.064Z,16.97
2022-12-18T12:22:00.136Z,14.87
2022-12-18T12:25:35.105Z,17.70
2022-12-18T12:29:10.519Z,17.67
2022-12-18T12:32:54.875Z,18.73
2022-12-18T12:36:24.741Z,18.63
2022-12-18T12:39:49.538Z,21.77
2022-12-18T12:43:27.047Z,16.30
2022-12-18T12:46:51.141Z,15.27
2022-12-18T12:50:19.411Z,19.20
2022-12-18T12:53:43.599Z,14.20
2022-12-18T12:57:13.395Z,20.07
2022-12-18T13:00:43.175Z,20.67
2022-12-18T13:04:17.281Z,21.07
2022-12-18T13:07:48.400Z,20.47
2022-12-18T13:11:59.535Z,20.90
2022-12-18T13:15:26.399Z,24.77
2022-12-18T13:18:55.184Z,17.80
2022-12-18T13:22:33.464Z,19.53
2022-12-18T13:25:58.474Z,19.90
2022-12-18T13:29:42.916Z,24.80
2022-12-18T13:34:01.979Z,21.47
2022-12-18T13:37:42.892Z,18.60
2022-12-18T13:41:25.291Z,21.37
2022-12-18T13:44:48.862Z,19.17
2022-12-18T13:48:26.054Z,15.70
2022-12-18T13:51:50.739Z,25.00
2022-12-18T13:55:20.500Z,19.97
2022-12-18T13:58:45.805Z,14.83
2022-12-18T14:02:16.854Z,20.03
2022-12-18T14:05:44.351Z,20.23
2022-12-18T14:09:11.842Z,21.00
2022-12-18T14:12:55.795Z,21.60
2022-12-18T14:16:20.254Z,26.60
2022-12-18T14:19:45.388Z,28.43
2022-12-18T14:23:31.624Z,22.10
2022-12-18T14:26:54.633Z,24.23
2022-12-18T14:30:30.755Z,21.53
2022-12-18T14:33:56.137Z,20.27
2022-12-18T14:37:22.176Z,21.77
2022-12-18T14:40:45.208Z,26.53
2022-12-18T14:44:13.991Z,20.20
2022-12-18T14:47:37.047Z,26.73
2022-12-18T14:51:04.302Z,24.90
2022-12-18T14:54:28.960Z,25.13
2022-12-18T14:57:54.582Z,31.20
2022-12-18T15:01:22.430Z,24.60
2022-12-18T15:04:45.987Z,29.03
2022-12-18T15:08:36.851Z,27.60
2022-12-18T15:12:01.460Z,25.63
2022-12-18T15:15:46.882Z,30.03
2022-12-18T15:19:10.427Z,28.30
2022-12-18T15:22:37.479Z,32.77
2022-12-18T15:26:04.135Z,23.90
2022-12-18T15:29:27.232Z,27.43
2022-12-18T15:32:51.536Z,30.90
2022-12-18T15:36:17.596Z,29.07
2022-12-18T15:39:48.418Z,32.73
2022-12-18T15:43:30.277Z,31.43
2022-12-18T15:46:53.516Z,38.87
2022-12-18T15:50:16.524Z,35.63
2022-12-18T15:53:40.857Z,36.00
2022-12-18T15:57:21.364Z,29.80
2022-12-18T16:00:45.687Z,43.60
2022-12-18T16:04:12.596Z,35.77
2022-12-18T16:07:35.497Z,34.57
2022-12-18T16:10:58.816Z,33.57
2022-12-18T16:14:24.686Z,34.20
2022-12-18T16:17:49.881Z,39.03
2022-12-18T16:21:13.113Z,39.97
2022-12-18T16:24:37.001Z,32.37
2022-12-18T16:27:59.927Z,30.53
2022-12-18T16:31:22.820Z,32.63
2022-12-18T16:34:47.732Z,45.77
2022-12-18T16:38:10.645Z,36.40
2022-12-18T16:41:34.631Z,31.43
2022-12-18T16:44:57.580Z,38.87
2022-12-18T16:48:20.536Z,38.60
2022-12-18T16:51:45.020Z,38.90
2022-12-18T16:55:08.940Z,44.47
2022-12-18T16:58:31.891Z,35.40
2022-12-18T17:01:55.677Z,35.37
2022-12-18T17:05:18.751Z,41.63
2022-12-18T17:08:42.964Z,48.00
2022-12-18T17:12:06.445Z,39.53
2022-12-18T17:15:29.303Z,33.77
2022-12-18T17:18:53.433Z,44.23
2022-12-18T17:22:16.334Z,43.30
2022-12-18T17:25:42.281Z,38.77
2022-12-18T17:29:05.468Z,53.90
2022-12-18T17:32:28.669Z,35.23
2022-12-18T17:35:51.755Z,44.03
2022-12-18T17:39:20.102Z,51.47
2022-12-18T17:42:44.339Z,48.57
2022-12-18T17:46:10.366Z,48.33
2022-12-18T17:49:33.359Z,43.50
2022-12-18T17:52:57.023Z,51.10
2022-12-18T17:56:22.153Z,42.40
2022-12-18T17:59:46.431Z,39.57
2022-12-18T18:03:09.644Z,42.83
2022-12-18T18:06:32.819Z,48.13
2022-12-18T18:09:57.755Z,50.63
2022-12-18T18:13:46.401Z,42.00
2022-12-18T18:17:11.394Z,48.17
2022-12-18T18:20:34.336Z,40.97
2022-12-18T18:24:01.104Z,48.17
2022-12-18T18:27:23.993Z,47.67
2022-12-18T18:30:47.065Z,45.77
2022-12-18T18:34:15.901Z,49.10
2022-12-18T18:37:38.873Z,43.53
2022-12-18T18:41:05.760Z,45.90
2022-12-18T18:44:29.867Z,43.17
2022-12-18T18:47:53.748Z,47.63
2022-12-18T18:51:21.160Z,50.80
2022-12-18T18:55:10.771Z,51.70
2022-12-18T18:58:27.798Z,50.17
2022-12-18T19:01:52.725Z,52.53
2022-12-18T19:05:15.949Z,43.17
2022-12-18T19:08:40.639Z,46.10
2022-12-18T19:12:21.525Z,47.57
2022-12-18T19:15:45.857Z,41.57
2022-12-18T19:19:09.310Z,41.57
2022-12-18T19:22:32.267Z,46.87
2022-12-18T19:26:17.055Z,49.50
2022-12-18T19:29:39.612Z,43.83
2022-12-18T19:33:19.990Z,57.00
2022-12-18T19:36:45.414Z,60.90
2022-12-18T19:40:12.650Z,49.27
2022-12-18T19:43:37.535Z,42.10
2022-12-18T19:47:00.404Z,49.50
2022-12-18T19:50:23.339Z,57.90
2022-12-18T19:53:46.816Z,44.77
2022-12-18T19:57:11.452Z,45.67
2022-12-18T20:00:35.914Z,42.13
2022-12-18T20:03:59.588Z,50.10
2022-12-18T20:07:23.376Z,45.20
2022-12-18T20:10:48.851Z,55.63
2022-12-18T20:14:12.863Z,74.83
2022-12-18T20:17:37.205Z,47.10
2022-12-18T20:21:00.219Z,51.60
2022-12-18T20:24:24.532Z,41.10
2022-12-18T20:27:47.889Z,48.00
2022-12-18T20:31:13.486Z,48.87
2022-12-18T20:34:38.575Z,47.67
2022-12-18T20:38:02.493Z,43.13
2022-12-18T20:41:26.146Z,48.83
2022-12-18T20:44:50.648Z,51.77
2022-12-18T20:48:13.556Z,51.57
2022-12-18T20:51:38.253Z,49.37
2022-12-18T20:55:04.242Z,52.20
2022-12-18T20:58:27.283Z,45.30
2022-12-18T21:01:50.314Z,49.20
2022-12-18T21:05:13.236Z,50.77
2022-12-18T21:08:38.030Z,63.03
2022-12-18T21:12:18.423Z,53.70
2022-12-18T21:15:41.493Z,56.70
2022-12-18T21:19:04.543Z,61.40
2022-12-18T21:22:28.276Z,52.10
2022-12-18T21:25:55.952Z,48.43
2022-12-18T21:29:21.491Z,48.93
2022-12-18T21:32:44.416Z,45.53
2022-12-18T21:36:08.448Z,44.37
2022-12-18T21:39:32.702Z,47.50
2022-12-18T21:43:17.820Z,54.13
2022-12-18T21:46:43.261Z,49.17
2022-12-18T21:50:07.205Z,47.17
2022-12-18T21:53:30.290Z,46.63
2022-12-18T21:56:54.995Z,45.90
2022-12-18T22:00:20.314Z,46.23
2022-12-18T22:03:46.281Z,56.43
2022-12-18T22:07:10.513Z,46.07
2022-12-18T22:10:34.298Z,53.50
2022-12-18T22:13:57.225Z,51.10
2022-12-18T22:17:24.192Z,44.70
2022-12-18T22:20:47.085Z,45.60
2022-12-18T22:24:13.750Z,51.47
2022-12-18T22:27:37.073Z,51.20
2022-12-18T22:31:06.460Z,50.83
2022-12-18T22:34:34.484Z,49.10
2022-12-18T22:38:00.005Z,56.73
2022-12-18T22:41:22.901Z,46.60
2022-12-18T22:44:45.867Z,51.07
2022-12-18T22:48:08.727Z,58.90
2022-12-18T22:51:33.145Z,52.93
2022-12-18T22:54:57.076Z,54.67
2022-12-18T22:58:20.009Z,56.10
2022-12-18T23:01:43.107Z,57.67
2022-12-18T23:05:08.596Z,65.83
2022-12-18T23:08:33.161Z,63.20
2022-12-18T23:11:56.118Z,60.90
2022-12-18T23:15:19.866Z,61.23
2022-12-18T23:18:54.800Z,55.90
2022-12-18T23:22:17.735Z,58.63
2022-12-18T23:25:46.413Z,63.60
2022-12-18T23:29:11.787Z,59.17
2022-12-18T23:32:37.695Z,61.40
2022-12-18T23:36:01.830Z,63.67
2022-12-18T23:39:29.635Z,69.93
2022-12-18T23:42:54.420Z,72.43
2022-12-18T23:46:20.525Z,73.80
2022-12-18T23:49:43.485Z,79.53
2022-12-18T23:53:06.475Z,62.57
2022-12-18T23:56:30.745Z,67.03
2022-12-18T23:59:55.416Z,60.00
